LFQA 210400Z AUTO 33007KT CAVOK 01/00 Q1035

ElémentsDécodage
LFQA Station météo située sur l'aérodrome de REIMS Prunay
210400Z émis le 21 du mois à 04h00 UTC
AUTO Bulletin édité par un automate
33007KT vent du 330°, 07 noeuds
CAVOK Ceiling And Visibility OK
- Visibilité de 10 Km ou plus
- Pas de nuage au-dessous de 1500m ou au-dessous de l'altitude minimale du secteur la plus élevée (si>1500m) et absence de CB
- pas de temps présent significatif
01/00 température 01°C, point de rosée 00°C
 soit une humidité relative de 93%
Q1035 la pression au niveau de la mer (QNH) est de 1035 hPa